• Join FlightAware (Why Join?)
  • Login
  • US Flag 
02:42PM EDT


 

Airport Tracker/Info


-or-


 

Live Flight TrackerFlight Track Log ✈ UPS2506 ✈ 13-Aug-2013 ✈ KDSM - KMHR

Flight Track Log - Related Links

Times and Time Zones

All times are in EDT time to prevent confusion due to time zone crossing. See the UPS2506 flight status page for this flight to view local times or setup timezone preferences in your user account.

Time Position Orientation Groundspeed Altitude Reporting Facility
EDT Latitude Longitude Course Direction KTS MPH feet Rate Location/Type
04:10PM 41.5539 -93.6683 271° West 171 197 1,600  Level Minneapolis Center
04:11PM 41.5544 -93.7275 271° West 192 221 3,400 2,520 Climbing Minneapolis Center
04:12PM 41.5369 -93.8258 257° West 249 287 6,400 3,000 Climbing Minneapolis Center
04:13PM 41.5192 -93.9239 256° West 268 308 9,600 2,460 Climbing Minneapolis Center
04:14PM 41.5050 -94.0150 258° West 287 330 11,500 1,980 Climbing Minneapolis Center
04:15PM 41.5100 -94.1739 272° West 354 407 13,800 2,340 Climbing Minneapolis Center
04:20PM 41.5700 -94.9720 272° West 412 474 26,400 2,160 Climbing FlightAware
04:21PM 41.5750 -95.0540 275° West 412 474 26,400 1,440 Level FlightAware
04:22PM 41.5890 -95.2510 275° West 426 490 29,100 1,380 Climbing FlightAware
04:23PM 41.5960 -95.3510 275° West 426 490 29,200 1,200 Climbing FlightAware
04:23PM 41.6040 -95.4670 275° West 441 507 30,700 2,040 Climbing FlightAware
04:24PM 41.6110 -95.5770 275° West 424 488 32,000 960 Climbing FlightAware
04:25PM 41.6180 -95.6790 275° West 425 489 32,000  Level FlightAware
04:25PM 41.6240 -95.7650 275° West 426 490 32,000  Level FlightAware
04:26PM 41.6300 -95.8710 274° West 429 494 32,000  Level FlightAware
04:26PM 41.6350 -95.9500 275° West 430 495 32,000  Level FlightAware
04:27PM 41.6420 -96.0510 275° West 433 498 32,000  Level FlightAware
04:28PM 41.6470 -96.1390 274° West 436 502 32,000  Level FlightAware
04:28PM 41.6520 -96.2280 274° West 436 502 32,000  Level FlightAware
04:29PM 41.6590 -96.3350 275° West 436 502 32,000  Level FlightAware
04:29PM 41.6640 -96.4320 274° West 437 503 32,000  Level FlightAware
04:30PM 41.6690 -96.5210 274° West 439 505 32,000  Level FlightAware
04:31PM 41.6750 -96.6160 275° West 439 505 32,000  Level FlightAware
04:31PM 41.6810 -96.7140 275° West 441 507 32,000  Level FlightAware
04:32PM 41.6860 -96.8140 274° West 441 507 32,000  Level FlightAware
04:32PM 41.6910 -96.8990 275° West 445 512 32,000  Level FlightAware
04:33PM 41.6960 -96.9900 274° West 445 512 32,000  Level FlightAware
04:34PM 41.7040 -97.1370 274° West 443 510 32,000  Level FlightAware
04:34PM 41.7100 -97.2550 274° West 444 511 32,000  Level FlightAware
04:35PM 41.7140 -97.3400 274° West 446 513 32,000  Level FlightAware
04:36PM 41.7190 -97.4360 274° West 445 512 32,000  Level FlightAware
04:36PM 41.7240 -97.5430 274° West 444 511 32,000  Level FlightAware
04:37PM 41.7280 -97.6300 274° West 445 512 32,000  Level FlightAware
04:37PM 41.7340 -97.7480 274° West 449 517 32,000  Level FlightAware
04:38PM 41.7390 -97.8590 273° West 449 517 32,000  Level FlightAware
04:39PM 41.7450 -97.9920 274° West 449 517 32,000  Level FlightAware
04:40PM 41.7480 -98.0770 273° West 449 517 32,000  Level FlightAware
04:40PM 41.7510 -98.1620 273° West 449 517 32,000  Level FlightAware
04:41PM 41.7550 -98.2500 274° West 449 517 32,000  Level FlightAware
04:41PM 41.7580 -98.3350 273° West 449 517 32,000  Level FlightAware
04:42PM 41.7610 -98.4200 273° West 449 517 32,000  Level FlightAware
04:43PM 41.7650 -98.5050 274° West 449 517 32,000  Level FlightAware
04:43PM 41.7680 -98.5900 273° West 449 517 32,000  Level FlightAware
04:44PM 41.7710 -98.6780 273° West 449 517 32,000  Level FlightAware
04:44PM 41.7750 -98.7650 274° West 449 517 32,000  Level FlightAware
04:45PM 41.7780 -98.8500 273° West 449 517 32,000  Level FlightAware
04:46PM 41.7810 -98.9350 273° West 449 517 32,000  Level FlightAware
04:46PM 41.7850 -99.0200 274° West 449 517 32,000  Level FlightAware
04:47PM 41.7880 -99.1060 273° West 449 517 32,000  Level FlightAware
04:47PM 41.7910 -99.1910 273° West 449 517 32,000  Level FlightAware
04:48PM 41.7950 -99.2760 274° West 449 517 32,000  Level FlightAware
04:49PM 41.8200 -99.5781 274° West 437 503 32,000  Level Denver Center
04:50PM 41.8653 -99.7428 290° West 442 509 32,000  Level Denver Center
04:51PM 41.9097 -99.9192 289° West 448 516 32,000  Level Denver Center
04:52PM 41.9444 -100.0703 287° West 447 514 32,000  Level Denver Center
04:53PM 41.9856 -100.2469 287° West 446 513 32,000  Level Denver Center
04:54PM 42.0200 -100.4003 287° West 448 516 32,000  Level Denver Center
04:55PM 42.0617 -100.5797 287° West 451 519 32,000  Level Denver Center
04:56PM 42.0978 -100.7336 288° West 452 520 32,000  Level Denver Center
04:57PM 42.1403 -100.9111 288° West 449 517 32,000  Level Denver Center
04:58PM 42.1761 -101.0636 288° West 448 516 32,000  Level Denver Center
04:59PM 42.2050 -101.2486 282° West 452 520 32,000  Level Denver Center
05:00PM 42.2200 -101.4081 277° West 450 518 32,000  Level Denver Center
05:01PM 42.2161 -101.5678 268° West 446 513 32,000  Level Denver Center
05:07PM 42.1713 -102.5450 268° West 449 517 32,000  Level FlightAware ADS-B
05:07PM 42.1650 -102.6280 264° West 447 514 32,000  Level FlightAware ADS-B
05:08PM 42.1572 -102.7170 263° West 447 514 32,000  Level FlightAware ADS-B
05:08PM 42.1494 -102.8080 263° West 448 516 32,000  Level FlightAware ADS-B
05:09PM 42.1424 -102.8910 264° West 449 517 32,000  Level FlightAware ADS-B
05:09PM 42.1359 -102.9740 264° West 449 517 32,000  Level FlightAware ADS-B
05:10PM 42.1298 -103.0580 264° West 451 519 32,000  Level FlightAware ADS-B
05:11PM 42.1213 -103.1750 264° West 451 519 32,000  Level FlightAware ADS-B
05:11PM 42.1135 -103.2670 264° West 450 518 32,000  Level FlightAware ADS-B
05:12PM 42.1031 -103.3500 260° West 447 514 32,000  Level FlightAware ADS-B
05:12PM 42.0911 -103.4340 259° West 446 513 32,000  Level FlightAware ADS-B
05:13PM 42.0728 -103.5250 255° West 446 513 32,000  Level FlightAware ADS-B
05:13PM 42.0595 -103.6060 258° West 446 513 32,000  Level FlightAware ADS-B
05:14PM 42.0461 -103.6880 258° West 447 514 32,000  Level FlightAware ADS-B
05:14PM 42.0324 -103.7710 257° West 444 511 32,000  Level FlightAware ADS-B
05:15PM 42.0184 -103.8520 257° West 442 509 32,000  Level FlightAware ADS-B
05:15PM 42.0045 -103.9350 257° West 440 506 32,000  Level FlightAware ADS-B
05:16PM 41.9908 -104.0140 257° West 437 503 32,000  Level FlightAware ADS-B
05:16PM 41.9772 -104.0970 258° West 437 503 32,000  Level FlightAware ADS-B
05:17PM 41.9635 -104.1810 258° West 437 503 32,000  Level FlightAware ADS-B
05:17PM 41.9489 -104.2660 257° West 438 504 32,000  Level FlightAware ADS-B
05:18PM 41.9377 -104.3490 260° West 440 506 32,000  Level FlightAware ADS-B
05:18PM 41.9278 -104.4320 261° West 440 506 32,000  Level FlightAware ADS-B
05:19PM 41.9173 -104.5210 261° West 440 506 32,000  Level FlightAware ADS-B
05:19PM 41.9075 -104.6020 261° West 440 506 32,000  Level FlightAware ADS-B
05:20PM 41.8978 -104.6850 261° West 439 505 32,000  Level FlightAware ADS-B
05:20PM 41.8880 -104.7660 261° West 437 503 32,000  Level FlightAware ADS-B
05:21PM 41.8780 -104.8480 261° West 433 498 32,000  Level FlightAware ADS-B
05:21PM 41.8681 -104.9270 260° West 432 497 32,000  Level FlightAware ADS-B
05:22PM 41.8583 -105.0060 261° West 431 496 32,000  Level FlightAware ADS-B
05:22PM 41.8481 -105.0880 261° West 433 498 32,000 180 Level FlightAware ADS-B
05:23PM 41.8373 -105.1730 260° West 439 505 32,200 840 Climbing FlightAware ADS-B
05:24PM 41.8266 -105.2590 261° West 440 506 32,900 1,320 Climbing FlightAware ADS-B
05:24PM 41.8163 -105.3400 260° West 438 504 33,600 660 Climbing FlightAware ADS-B
05:25PM 41.7950 -105.5050 260° West 439 505 34,000 240 Climbing FlightAware
05:26PM 41.7830 -105.5980 260° West 431 496 34,000  Level FlightAware
05:26PM 41.7690 -105.7060 260° West 430 495 34,000  Level FlightAware
05:27PM 41.7580 -105.7940 261° West 427 491 34,000  Level FlightAware
05:28PM 41.7440 -105.8980 260° West 430 495 34,000  Level FlightAware
05:28PM 41.7330 -105.9800 260° West 433 498 34,000  Level FlightAware
05:29PM 41.7200 -106.0770 260° West 431 496 34,000  Level FlightAware
05:29PM 41.7070 -106.1720 260° West 430 495 34,000  Level FlightAware
05:30PM 41.6970 -106.2500 260° West 432 497 34,000  Level FlightAware
05:30PM 41.6840 -106.3470 260° West 432 497 34,000  Level FlightAware
05:31PM 41.6680 -106.4570 259° West 432 497 34,000  Level FlightAware
05:32PM 41.6560 -106.5400 259° West 432 497 34,000  Level FlightAware
05:32PM 41.6440 -106.6200 259° West 432 497 34,000  Level FlightAware
05:33PM 41.6320 -106.7000 259° West 432 497 34,000  Level FlightAware
05:34PM 41.6210 -106.7810 260° West 432 497 34,000  Level FlightAware
05:34PM 41.6090 -106.8610 259° West 432 497 34,000  Level FlightAware
05:35PM 41.5970 -106.9410 259° West 432 497 34,000  Level FlightAware
05:35PM 41.5860 -107.0220 260° West 432 497 34,000  Level FlightAware
05:36PM 41.5740 -107.1020 259° West 432 497 34,000  Level FlightAware
05:37PM 41.5630 -107.1780 259° West 432 497 34,000  Level FlightAware
05:37PM 41.5510 -107.2580 259° West 432 497 34,000  Level FlightAware
05:38PM 41.5400 -107.3380 260° West 432 497 34,000  Level FlightAware
05:38PM 41.5280 -107.4200 259° West 432 497 34,000  Level FlightAware
05:39PM 41.5160 -107.5030 259° West 432 497 34,000  Level FlightAware
05:40PM 41.5050 -107.5790 259° West 432 497 34,000  Level FlightAware
05:40PM 41.4930 -107.6590 259° West 432 497 34,000  Level FlightAware
05:41PM 41.4558 -107.9550 259° West 428 493 34,000  Level Salt Lake Center
05:42PM 41.4364 -108.1022 260° West 424 488 34,000  Level Salt Lake Center
05:42PM 41.4211 -108.2258 261° West 425 489 34,000  Level Denver Center
05:44PM 41.4011 -108.3719 260° West 422 486 34,000  Level Denver Center
05:45PM 41.3775 -108.5433 260° West 421 484 34,000  Level Denver Center
05:46PM 41.3572 -108.6892 260° West 419 482 34,000  Level Denver Center
05:47PM 41.3331 -108.8611 259° West 421 484 34,000  Level Denver Center
05:48PM 41.3108 -109.0111 259° West 427 491 34,000  Level Denver Center
05:49PM 41.2892 -109.1639 259° West 430 495 34,000  Level Denver Center
05:50PM 41.2647 -109.3383 259° West 427 491 34,000  Level Denver Center
05:51PM 41.2361 -109.5344 259° West 421 484 34,000  Level Salt Lake Center
05:52PM 41.2114 -109.7056 259° West 422 486 34,000  Level Salt Lake Center
05:53PM 41.1894 -109.8519 259° West 422 486 34,000  Level Salt Lake Center
05:59PM 41.0393 -110.8300 259° West 427 491 34,000  Level FlightAware ADS-B
06:00PM 41.0271 -110.9070 258° West 427 491 34,000  Level FlightAware ADS-B
06:01PM 41.0133 -110.9930 258° West 426 490 34,000  Level FlightAware ADS-B
06:01PM 40.9980 -111.0900 258° West 425 489 34,000  Level FlightAware ADS-B
06:02PM 40.9855 -111.1660 258° West 425 489 34,000  Level FlightAware ADS-B
06:02PM 40.9709 -111.2580 258° West 426 490 34,000  Level FlightAware ADS-B
06:03PM 40.9585 -111.3350 258° West 426 490 34,000  Level FlightAware ADS-B
06:03PM 40.9450 -111.4160 258° West 428 493 34,000  Level FlightAware ADS-B
06:04PM 40.9322 -111.4950 258° West 429 494 34,000  Level FlightAware ADS-B
06:04PM 40.9179 -111.5800 257° West 431 496 34,000  Level FlightAware ADS-B
06:05PM 40.9049 -111.6600 258° West 432 497 34,000  Level FlightAware ADS-B
06:05PM 40.8920 -111.7370 258° West 431 496 34,000  Level FlightAware ADS-B
06:06PM 40.8779 -111.8190 257° West 432 497 34,000  Level FlightAware ADS-B
06:06PM 40.8642 -111.9020 258° West 433 498 34,000  Level FlightAware ADS-B
06:07PM 40.8524 -111.9800 259° West 434 499 34,000  Level FlightAware ADS-B
06:07PM 40.8485 -112.0270 264° West 434 499 34,000  Level FlightAware ADS-B
06:08PM 40.8455 -112.1060 267° West 433 498 34,000  Level FlightAware ADS-B
06:08PM 40.8428 -112.1880 268° West 433 498 34,000  Level FlightAware ADS-B
06:09PM 40.8398 -112.2750 267° West 433 498 34,000  Level FlightAware ADS-B
06:09PM 40.8368 -112.3570 267° West 434 499 34,000  Level FlightAware ADS-B
06:10PM 40.8329 -112.4570 267° West 435 501 34,000  Level FlightAware ADS-B
06:10PM 40.8296 -112.5390 267° West 434 499 34,000  Level FlightAware ADS-B
06:11PM 40.8258 -112.6340 267° West 434 499 34,000  Level FlightAware ADS-B
06:12PM 40.8221 -112.7220 267° West 435 501 34,000  Level FlightAware ADS-B
06:12PM 40.8188 -112.8040 267° West 435 501 34,000  Level FlightAware ADS-B
06:13PM 40.8154 -112.8830 267° West 435 501 34,000  Level FlightAware ADS-B
06:13PM 40.8118 -112.9650 267° West 435 501 34,000  Level FlightAware ADS-B
06:14PM 40.8081 -113.0470 267° West 436 502 34,000  Level FlightAware ADS-B
06:14PM 40.8046 -113.1260 267° West 434 499 34,000  Level FlightAware ADS-B
06:15PM 40.7992 -113.2450 267° West 433 498 34,000  Level FlightAware ADS-B
06:15PM 40.7955 -113.3240 266° West 433 498 34,000  Level FlightAware ADS-B
06:16PM 40.7908 -113.4270 267° West 433 498 34,000  Level FlightAware ADS-B
06:17PM 40.7868 -113.5060 266° West 433 498 34,000  Level FlightAware ADS-B
06:17PM 40.7826 -113.5920 266° West 433 498 34,000  Level FlightAware ADS-B
06:18PM 40.7760 -113.7240 266° West 432 497 34,000  Level FlightAware ADS-B
06:19PM 40.7715 -113.8130 266° West 431 496 34,000  Level FlightAware ADS-B
06:19PM 40.7670 -113.9020 266° West 431 496 34,000  Level FlightAware ADS-B
06:20PM 40.7623 -113.9910 266° West 431 496 34,000  Level FlightAware ADS-B
06:20PM 40.7573 -114.0860 266° West 432 497 34,000  Level FlightAware ADS-B
06:21PM 40.7522 -114.1770 266° West 433 498 34,000  Level FlightAware ADS-B
06:21PM 40.7479 -114.2560 266° West 432 497 34,000  Level FlightAware ADS-B
06:22PM 40.7428 -114.3480 266° West 436 502 34,000  Level FlightAware ADS-B
06:22PM 40.7382 -114.4280 266° West 440 506 34,000  Level FlightAware ADS-B
06:24PM 40.7269 -114.6260 266° West 439 505 34,000  Level FlightAware ADS-B
06:24PM 40.7222 -114.7070 266° West 431 496 34,000  Level FlightAware ADS-B
06:25PM 40.7174 -114.7860 265° West 435 501 34,000  Level FlightAware ADS-B
06:25PM 40.7124 -114.8700 266° West 435 501 34,000  Level FlightAware ADS-B
06:26PM 40.7072 -114.9550 265° West 434 499 34,000  Level FlightAware ADS-B
06:26PM 40.7018 -115.0420 265° West 433 498 34,000  Level FlightAware ADS-B
06:27PM 40.6959 -115.1360 265° West 433 498 34,000  Level FlightAware ADS-B
06:27PM 40.6909 -115.2170 265° West 433 498 34,000  Level FlightAware ADS-B
06:31PM 40.6555 -115.7510 265° West 437 503 34,000  Level FlightAware ADS-B
06:31PM 40.6496 -115.8350 265° West 437 503 34,000 120 Level FlightAware ADS-B
06:32PM 40.6353 -115.9981 265° West 437 503 34,200  Climbing Salt Lake Center
06:33PM 40.6294 -116.1361 267° West 435 501 34,000 -120 Descending Salt Lake Center
06:34PM 40.6144 -116.3281 264° West 438 504 34,000  Level Salt Lake Center
06:35PM 40.6033 -116.4797 265° West 437 503 34,000  Level Salt Lake Center
06:37PM 40.5922 -116.6311 265° West 436 502 34,000  Level Salt Lake Center
06:38PM 40.5789 -116.8053 264° West 435 501 34,000  Level Salt Lake Center
06:39PM 40.5506 -116.9764 258° West 437 503 34,000  Level Salt Lake Center
06:40PM 40.5011 -117.1142 245° Southwest 442 509 34,000  Level Salt Lake Center
06:41PM 40.4411 -117.2725 244° Southwest 439 505 34,000  Level Salt Lake Center
06:46PM 40.1350 -118.0980 244° Southwest 436 502 34,000  Level FlightAware
06:47PM 40.1010 -118.1880 244° Southwest 439 505 34,000  Level FlightAware
06:48PM 40.0680 -118.2730 243° Southwest 439 505 34,000  Level FlightAware
06:48PM 40.0360 -118.3590 244° Southwest 438 504 34,000  Level FlightAware
06:49PM 40.0070 -118.4340 243° Southwest 438 504 34,000  Level FlightAware
06:49PM 39.9730 -118.5220 243° Southwest 438 504 34,000  Level FlightAware
06:50PM 39.9420 -118.6050 244° Southwest 438 504 34,000  Level FlightAware
06:51PM 39.9080 -118.6890 242° Southwest 436 502 34,000  Level FlightAware
06:51PM 39.8800 -118.7650 244° Southwest 437 503 34,000  Level FlightAware
06:52PM 39.8480 -118.8470 243° Southwest 436 502 34,000 -120 Level FlightAware
06:52PM 39.8150 -118.9340 244° Southwest 438 504 33,900 -540 Descending FlightAware
06:53PM 39.7850 -119.0090 243° Southwest 440 506 33,400 -1,200 Descending FlightAware
06:53PM 39.7500 -119.0990 243° Southwest 441 507 32,500 -1,440 Descending FlightAware
06:54PM 39.7190 -119.1800 244° Southwest 444 511 31,700 -1,500 Descending FlightAware
06:55PM 39.6840 -119.2680 243° Southwest 450 518 30,800 -1,440 Descending FlightAware
06:55PM 39.6510 -119.3530 243° Southwest 455 524 30,000 -720 Descending FlightAware
06:56PM 39.6200 -119.4310 243° Southwest 456 525 30,000  Level FlightAware
06:56PM 39.5830 -119.5240 243° Southwest 459 528 30,000 -360 Level FlightAware
06:57PM 39.5500 -119.6070 243° Southwest 463 533 29,600 -1,080 Descending FlightAware
06:58PM 39.5120 -119.6880 239° Southwest 465 535 28,800 -1,440 Descending FlightAware
06:58PM 39.4690 -119.7640 234° Southwest 467 537 28,000 -1,500 Descending FlightAware
06:59PM 39.4230 -119.8460 234° Southwest 469 540 27,100 -1,680 Descending FlightAware
06:59PM 39.3790 -119.9230 234° Southwest 457 526 26,100 -2,640 Descending FlightAware
07:00PM 39.3320 -120.0050 233° Southwest 445 512 24,000 -3,180 Descending FlightAware
07:00PM 39.2930 -120.0730 233° Southwest 433 498 22,400 -2,880 Descending FlightAware
07:01PM 39.2530 -120.1420 233° Southwest 421 484 20,800 -2,940 Descending FlightAware
07:02PM 39.2100 -120.2180 234° Southwest 410 472 18,900 -3,060 Descending FlightAware
07:02PM 39.1720 -120.2840 233° Southwest 403 464 17,200 -2,880 Descending FlightAware
07:03PM 39.1360 -120.3390 230° Southwest 388 447 15,800 -2,220 Descending FlightAware
07:04PM 39.0780 -120.4270 230° Southwest 379 436 14,100 -2,040 Descending FlightAware
07:04PM 39.0340 -120.4960 231° Southwest 374 430 12,800 -1,800 Descending FlightAware
07:05PM 39.0000 -120.5490 230° Southwest 365 420 12,100 -660 Descending FlightAware
07:05PM 38.9640 -120.6050 230° Southwest 367 422 12,100  Level FlightAware
07:06PM 38.9190 -120.6740 230° Southwest 338 389 12,100 -480 Level FlightAware
07:06PM 38.8890 -120.7190 229° Southwest 315 362 11,600 -1,560 Descending FlightAware
07:07PM 38.8520 -120.7790 232° Southwest 315 362 10,300 -1,800 Descending FlightAware
07:07PM 38.8390 -120.8010 233° Southwest 313 360 10,000 -780 Descending FlightAware
07:08PM 38.8190 -120.8360 234° Southwest 289 333 9,800 -720 Descending FlightAware
07:08PM 38.8030 -120.8640 234° Southwest 278 320 9,500 -1,200 Descending FlightAware
07:08PM 38.7870 -120.8920 234° Southwest 278 320 9,000 -1,980 Descending FlightAware
07:09PM 38.7720 -120.9190 235° Southwest 274 315 8,200 -2,400 Descending FlightAware
07:09PM 38.7530 -120.9530 234° Southwest 272 313 7,200 -2,400 Descending FlightAware
07:10PM 38.7380 -120.9790 234° Southwest 269 310 6,400 -2,100 Descending FlightAware
07:10PM 38.7230 -121.0040 232° Southwest 259 298 5,800 -2,040 Descending FlightAware
07:10PM 38.7160 -121.0170 235° Southwest 258 297 5,400 -2,400 Descending FlightAware
07:10PM 38.6980 -121.0460 232° Southwest 252 290 4,400 -2,280 Descending FlightAware
07:11PM 38.6830 -121.0720 234° Southwest 250 288 3,700 -1,620 Descending FlightAware
07:11PM 38.6700 -121.0930 232° Southwest 250 288 3,300 -1,140 Descending FlightAware
07:11PM 38.6620 -121.1070 234° Southwest 247 284 3,000 -660 Descending FlightAware
07:12PM 38.6420 -121.1430 235° Southwest 210 242 2,900 -180 Descending FlightAware
07:12PM 38.6330 -121.1590 234° Southwest 188 216 2,900 -780 Level FlightAware
07:12PM 38.6250 -121.1730 234° Southwest 186 214 2,400 -1,920 Descending FlightAware
07:13PM 38.6100 -121.1990 234° Southwest 183 211 1,500 -1,140 Descending FlightAware
07:13PM 38.5990 -121.2170 232° Southwest 183 211 1,500 -660 Level FlightAware
07:14PM 38.5786 -121.2556 232° Southwest 142 163 600 -660 Descending Oakland Center
07:15PM 38.5569 -121.2947 235° Southwest 136 157 200 -420 Descending Oakland Center